Minneapolis-St Paul International/Wold-Chamberlain Airport
KMSP : now visible

Airfield :











YOU CAN JOIN US ON...

 
LOGIN :

Register | Disclaimer

   EN    FR    IT 

 









Legend :    VFR   Marginal VFR   IFR   Intensive IFR   Very Intensive IFR
Visi :
Ceiling :
>= 8 km
>= 3000ft
5 to 8 km
1000 to 3000 ft
1500m to 5 km
500 to 1000 ft
800 to 1500m
200 to 500 ft
< 800m
< 200 ft
Symbols :   Thunderstorms  Fog  Heavy snow  Heavy precipitations  Wind > 20 kt






- Airport Elevation : 841 ft
- IATA code : MSP


KMSP - Minneapolis-St Paul International/Wold-Chamberlain

CURRENT METAR :
  • 211925Z 21006KT 8SM TSRA FEW070 BKN100CB BKN250 22/13 A3007 RMK AO2 LTG DSNT W RAB19 TSB23 TS OHD MOV NE P0000 T02220133

EXPIRED METARs :
  • 211919Z 19009KT 10SM VCTS -RA BKN100CB BKN250 23/12 A3008 RMK AO2 LTG DSNT W RAB19 VCTS W MOV NE P0000 T02330117
  • 211853Z 17010G19KT 10SM SCT110 SCT250 23/12 A3008 RMK AO2 LTG DSNT W SLP183 CB DSNT W ACC ALQDS T02330122
  • 211753Z 21011G19KT 10SM FEW150 23/12 A3010 RMK AO2 SLP191 T02330117 10233 20150 58012
  • 211653Z 20008G18KT 10SM FEW150 22/11 A3011 RMK AO2 SLP195 T02170111

TAF KMSP
Valid from the 21 at 19:00 until the 23 at 00:00 UTC


211900Z 2119/2224 19010G17KT P6SM VCTS BKN100CB
FM212100 19007G16KT P6SM SKC
FM220000 19007KT P6SM SKC
KZMP FIR / North America



MET'MAP, your aeronautical weather chart ! - Copyright ORBIFLY December 2007 - Disclaimer

ORBIFLY MET'MAP TEAM :

Programming & Development : Alexandra Zaïnal
Concept & original design : Baudouin d'Aumeries
Assistance for programming : Marc-Olivier Méhu
Technical & hardware support : Manuel Goepfert

Contact : metmap@orbifly.com




SOURCES & CREDITS :

   NOAA       Earth
Advisory